sensor_id;sensor_type;location;lat;lon;timestamp;pressure;altitude;pressure_sealevel;temperature;humidity
14393;BME280;7281;42.678;23.372;2022-11-30T00:00:58;95276.13;;;7.52;61.73
14393;BME280;7281;42.678;23.372;2022-11-30T00:03:25;95266.28;;;7.43;61.95
14393;BME280;7281;42.678;23.372;2022-11-30T00:05:52;95277.53;;;7.66;61.50
14393;BME280;7281;42.678;23.372;2022-11-30T00:08:19;95279.75;;;7.63;61.54
14393;BME280;7281;42.678;23.372;2022-11-30T00:10:46;95274.22;;;7.59;61.50
14393;BME280;7281;42.678;23.372;2022-11-30T00:13:13;95279.22;;;7.61;62.00
14393;BME280;7281;42.678;23.372;2022-11-30T00:15:40;95283.41;;;7.50;62.07
14393;BME280;7281;42.678;23.372;2022-11-30T00:18:06;95286.69;;;7.69;62.12
14393;BME280;7281;42.678;23.372;2022-11-30T00:20:33;95293.72;;;7.57;61.90
14393;BME280;7281;42.678;23.372;2022-11-30T00:23:00;95288.94;;;7.54;62.49
14393;BME280;7281;42.678;23.372;2022-11-30T00:25:27;95294.28;;;7.47;63.27
14393;BME280;7281;42.678;23.372;2022-11-30T00:27:54;95303.91;;;7.47;62.83
14393;BME280;7281;42.678;23.372;2022-11-30T00:30:21;95288.97;;;7.77;61.75
14393;BME280;7281;42.678;23.372;2022-11-30T00:32:48;95291.16;;;8.31;60.92
14393;BME280;7281;42.678;23.372;2022-11-30T00:35:14;95302.41;;;8.20;61.06
14393;BME280;7281;42.678;23.372;2022-11-30T00:37:43;95302.84;;;8.29;60.52
14393;BME280;7281;42.678;23.372;2022-11-30T00:40:10;95293.50;;;8.44;60.16
14393;BME280;7281;42.678;23.372;2022-11-30T00:42:37;95289.03;;;8.28;60.41
14393;BME280;7281;42.678;23.372;2022-11-30T00:45:04;95288.13;;;7.99;61.36
14393;BME280;7281;42.678;23.372;2022-11-30T00:47:31;95285.59;;;8.16;60.06
14393;BME280;7281;42.678;23.372;2022-11-30T00:49:58;95287.06;;;8.12;60.42
14393;BME280;7281;42.678;23.372;2022-11-30T00:52:27;95276.63;;;8.23;60.77
14393;BME280;7281;42.678;23.372;2022-11-30T00:54:54;95278.44;;;8.23;60.37
14393;BME280;7281;42.678;23.372;2022-11-30T00:57:21;95278.16;;;8.08;60.26
14393;BME280;7281;42.678;23.372;2022-11-30T00:59:47;95276.91;;;7.87;61.38
14393;BME280;7281;42.678;23.372;2022-11-30T01:02:14;95276.63;;;8.12;60.63
14393;BME280;7281;42.678;23.372;2022-11-30T01:04:41;95277.69;;;8.11;60.15
14393;BME280;7281;42.678;23.372;2022-11-30T01:07:08;95281.44;;;8.03;60.50
14393;BME280;7281;42.678;23.372;2022-11-30T01:09:35;95282.00;;;8.05;60.68
14393;BME280;7281;42.678;23.372;2022-11-30T01:12:02;95282.31;;;8.20;60.13
14393;BME280;7281;42.678;23.372;2022-11-30T01:14:29;95276.44;;;8.02;61.00
14393;BME280;7281;42.678;23.372;2022-11-30T01:16:55;95283.84;;;7.93;60.94
14393;BME280;7281;42.678;23.372;2022-11-30T01:19:22;95274.88;;;8.01;61.28
14393;BME280;7281;42.678;23.372;2022-11-30T01:21:49;95276.13;;;7.98;61.40
14393;BME280;7281;42.678;23.372;2022-11-30T01:24:16;95274.25;;;8.10;60.98
14393;BME280;7281;42.678;23.372;2022-11-30T01:26:43;95280.97;;;8.06;61.50
14393;BME280;7281;42.678;23.372;2022-11-30T01:29:09;95265.78;;;7.92;61.08
14393;BME280;7281;42.678;23.372;2022-11-30T01:31:36;95279.19;;;7.84;62.08
14393;BME280;7281;42.678;23.372;2022-11-30T01:34:03;95276.44;;;8.02;61.18
14393;BME280;7281;42.678;23.372;2022-11-30T01:36:30;95275.31;;;8.09;60.84
14393;BME280;7281;42.678;23.372;2022-11-30T01:38:57;95272.59;;;8.04;60.69
14393;BME280;7281;42.678;23.372;2022-11-30T01:41:27;95278.72;;;7.87;61.69
14393;BME280;7281;42.678;23.372;2022-11-30T01:43:57;95277.38;;;7.73;62.09
14393;BME280;7281;42.678;23.372;2022-11-30T01:54:54;95266.19;;;7.49;63.10
14393;BME280;7281;42.678;23.372;2022-11-30T01:57:28;95274.00;;;7.61;62.80
14393;BME280;7281;42.678;23.372;2022-11-30T02:00:00;95276.16;;;7.41;63.09
14393;BME280;7281;42.678;23.372;2022-11-30T02:02:44;95261.41;;;7.35;63.44
14393;BME280;7281;42.678;23.372;2022-11-30T02:05:15;95266.16;;;7.72;62.52
14393;BME280;7281;42.678;23.372;2022-11-30T02:07:42;95271.38;;;7.49;62.92
14393;BME280;7281;42.678;23.372;2022-11-30T02:10:16;95262.88;;;7.54;62.65
14393;BME280;7281;42.678;23.372;2022-11-30T02:18:45;95260.50;;;7.52;63.04
14393;BME280;7281;42.678;23.372;2022-11-30T02:21:23;95268.31;;;7.64;62.53
14393;BME280;7281;42.678;23.372;2022-11-30T02:24:01;95265.59;;;7.36;63.60
14393;BME280;7281;42.678;23.372;2022-11-30T02:29:33;95273.97;;;7.38;63.40
14393;BME280;7281;42.678;23.372;2022-11-30T02:32:08;95261.97;;;7.25;63.15
14393;BME280;7281;42.678;23.372;2022-11-30T02:34:36;95261.94;;;7.13;63.58
14393;BME280;7281;42.678;23.372;2022-11-30T02:37:04;95260.84;;;7.33;63.13
14393;BME280;7281;42.678;23.372;2022-11-30T02:39:32;95253.03;;;7.44;62.50
14393;BME280;7281;42.678;23.372;2022-11-30T02:41:59;95267.06;;;7.43;62.77
14393;BME280;7281;42.678;23.372;2022-11-30T02:44:27;95257.09;;;7.40;63.36
14393;BME280;7281;42.678;23.372;2022-11-30T02:49:58;95259.16;;;7.50;62.36
14393;BME280;7281;42.678;23.372;2022-11-30T02:52:27;95259.22;;;7.08;63.80
14393;BME280;7281;42.678;23.372;2022-11-30T02:55:05;95264.34;;;7.15;63.97
14393;BME280;7281;42.678;23.372;2022-11-30T02:57:33;95260.91;;;7.03;64.41
14393;BME280;7281;42.678;23.372;2022-11-30T03:00:01;95267.88;;;7.44;63.75
14393;BME280;7281;42.678;23.372;2022-11-30T03:02:29;95268.22;;;7.47;63.13
14393;BME280;7281;42.678;23.372;2022-11-30T03:04:56;95265.81;;;7.22;63.95
14393;BME280;7281;42.678;23.372;2022-11-30T03:07:23;95264.34;;;7.15;64.48
14393;BME280;7281;42.678;23.372;2022-11-30T03:09:49;95263.09;;;7.17;64.43
14393;BME280;7281;42.678;23.372;2022-11-30T03:12:16;95273.41;;;7.12;64.99
14393;BME280;7281;42.678;23.372;2022-11-30T03:14:43;95260.59;;;7.22;64.08
14393;BME280;7281;42.678;23.372;2022-11-30T03:17:10;95272.06;;;7.22;64.79
14393;BME280;7281;42.678;23.372;2022-11-30T03:19:37;95271.00;;;7.22;64.45
14393;BME280;7281;42.678;23.372;2022-11-30T03:22:04;95263.19;;;6.99;65.29
14393;BME280;7281;42.678;23.372;2022-11-30T03:24:31;95258.69;;;7.30;64.47
14393;BME280;7281;42.678;23.372;2022-11-30T03:29:44;95262.56;;;7.39;64.04
14393;BME280;7281;42.678;23.372;2022-11-30T03:32:11;95254.63;;;7.57;63.40
14393;BME280;7281;42.678;23.372;2022-11-30T03:34:38;95261.41;;;7.58;63.03
14393;BME280;7281;42.678;23.372;2022-11-30T03:37:05;95276.25;;;7.46;63.82
14393;BME280;7281;42.678;23.372;2022-11-30T03:39:31;95264.72;;;7.53;63.59
14393;BME280;7281;42.678;23.372;2022-11-30T03:41:58;95268.09;;;7.42;63.66
14393;BME280;7281;42.678;23.372;2022-11-30T03:44:25;95267.75;;;7.27;64.25
14393;BME280;7281;42.678;23.372;2022-11-30T03:46:52;95266.84;;;7.33;64.01
14393;BME280;7281;42.678;23.372;2022-11-30T03:49:19;95268.56;;;7.51;63.24
14393;BME280;7281;42.678;23.372;2022-11-30T03:51:45;95268.75;;;7.84;62.15
14393;BME280;7281;42.678;23.372;2022-11-30T03:54:12;95272.19;;;7.73;62.50
14393;BME280;7281;42.678;23.372;2022-11-30T03:56:39;95268.09;;;7.54;63.10
14393;BME280;7281;42.678;23.372;2022-11-30T03:59:06;95274.69;;;7.68;62.77
14393;BME280;7281;42.678;23.372;2022-11-30T04:01:32;95274.22;;;7.82;62.72
14393;BME280;7281;42.678;23.372;2022-11-30T04:03:59;95271.56;;;7.94;62.16
14393;BME280;7281;42.678;23.372;2022-11-30T04:06:27;95275.81;;;7.72;63.03
14393;BME280;7281;42.678;23.372;2022-11-30T04:08:54;95272.03;;;7.91;62.01
14393;BME280;7281;42.678;23.372;2022-11-30T04:11:21;95279.66;;;7.69;63.11
14393;BME280;7281;42.678;23.372;2022-11-30T04:13:48;95273.53;;;7.64;62.38
14393;BME280;7281;42.678;23.372;2022-11-30T04:16:14;95272.63;;;7.47;63.20
14393;BME280;7281;42.678;23.372;2022-11-30T04:18:41;95278.88;;;7.80;62.48
14393;BME280;7281;42.678;23.372;2022-11-30T04:21:09;95280.19;;;7.94;61.69
14393;BME280;7281;42.678;23.372;2022-11-30T04:23:38;95282.81;;;7.83;63.00
14393;BME280;7281;42.678;23.372;2022-11-30T04:26:07;95281.13;;;7.65;63.08
14393;BME280;7281;42.678;23.372;2022-11-30T04:28:34;95283.94;;;7.87;62.50
14393;BME280;7281;42.678;23.372;2022-11-30T04:31:01;95292.59;;;7.53;63.23
14393;BME280;7281;42.678;23.372;2022-11-30T04:33:28;95294.88;;;7.61;62.59
14393;BME280;7281;42.678;23.372;2022-11-30T04:36:01;95290.44;;;7.61;63.20
14393;BME280;7281;42.678;23.372;2022-11-30T04:38:29;95282.97;;;7.53;63.28
14393;BME280;7281;42.678;23.372;2022-11-30T04:40:56;95288.72;;;7.44;64.06
14393;BME280;7281;42.678;23.372;2022-11-30T04:43:23;95284.44;;;7.61;63.23
14393;BME280;7281;42.678;23.372;2022-11-30T04:45:50;95282.47;;;7.22;63.71
14393;BME280;7281;42.678;23.372;2022-11-30T04:48:18;95282.63;;;7.50;64.00
14393;BME280;7281;42.678;23.372;2022-11-30T04:50:45;95276.25;;;7.69;63.05
14393;BME280;7281;42.678;23.372;2022-11-30T04:53:12;95265.94;;;7.51;63.30
14393;BME280;7281;42.678;23.372;2022-11-30T04:55:39;95284.75;;;7.53;63.19
14393;BME280;7281;42.678;23.372;2022-11-30T04:58:06;95295.09;;;7.48;63.92
14393;BME280;7281;42.678;23.372;2022-11-30T05:00:34;95286.00;;;7.39;63.96
14393;BME280;7281;42.678;23.372;2022-11-30T05:03:01;95293.41;;;7.53;63.05
14393;BME280;7281;42.678;23.372;2022-11-30T05:05:28;95294.28;;;7.70;62.63
14393;BME280;7281;42.678;23.372;2022-11-30T05:07:56;95295.22;;;7.64;63.08
14393;BME280;7281;42.678;23.372;2022-11-30T05:10:25;95299.50;;;7.59;62.66
14393;BME280;7281;42.678;23.372;2022-11-30T05:12:52;95286.47;;;7.82;62.10
14393;BME280;7281;42.678;23.372;2022-11-30T05:15:20;95302.91;;;7.59;63.24
14393;BME280;7281;42.678;23.372;2022-11-30T05:17:47;95297.94;;;7.81;62.25
14393;BME280;7281;42.678;23.372;2022-11-30T05:20:14;95297.59;;;7.66;62.77
14393;BME280;7281;42.678;23.372;2022-11-30T05:22:41;95301.06;;;7.48;63.45
14393;BME280;7281;42.678;23.372;2022-11-30T05:25:08;95290.88;;;7.24;63.78
14393;BME280;7281;42.678;23.372;2022-11-30T05:27:35;95295.75;;;7.32;63.22
14393;BME280;7281;42.678;23.372;2022-11-30T05:30:04;95298.69;;;7.47;63.46
14393;BME280;7281;42.678;23.372;2022-11-30T05:32:31;95298.13;;;7.33;63.91
14393;BME280;7281;42.678;23.372;2022-11-30T05:34:58;95298.94;;;7.57;63.44
14393;BME280;7281;42.678;23.372;2022-11-30T05:37:25;95302.13;;;7.59;63.17
14393;BME280;7281;42.678;23.372;2022-11-30T05:39:52;95283.28;;;7.34;63.38
14393;BME280;7281;42.678;23.372;2022-11-30T05:42:19;95297.91;;;7.58;62.72
14393;BME280;7281;42.678;23.372;2022-11-30T05:44:46;95310.38;;;7.33;63.15
14393;BME280;7281;42.678;23.372;2022-11-30T05:47:14;95324.75;;;7.24;63.84
14393;BME280;7281;42.678;23.372;2022-11-30T05:49:41;95311.16;;;7.45;63.13
14393;BME280;7281;42.678;23.372;2022-11-30T05:52:08;95304.03;;;7.75;62.75
14393;BME280;7281;42.678;23.372;2022-11-30T05:54:35;95317.56;;;7.72;62.60
14393;BME280;7281;42.678;23.372;2022-11-30T05:57:02;95318.22;;;7.79;62.31
14393;BME280;7281;42.678;23.372;2022-11-30T05:59:30;95322.41;;;7.57;62.60
14393;BME280;7281;42.678;23.372;2022-11-30T06:01:57;95313.91;;;7.50;63.11
14393;BME280;7281;42.678;23.372;2022-11-30T06:04:24;95319.59;;;7.70;62.47
14393;BME280;7281;42.678;23.372;2022-11-30T06:06:51;95323.09;;;7.98;61.70
14393;BME280;7281;42.678;23.372;2022-11-30T06:09:21;95327.16;;;7.94;61.50
14393;BME280;7281;42.678;23.372;2022-11-30T06:11:48;95324.56;;;7.83;61.64
14393;BME280;7281;42.678;23.372;2022-11-30T06:14:15;95326.59;;;8.04;61.26
14393;BME280;7281;42.678;23.372;2022-11-30T06:16:42;95333.19;;;7.83;62.33
14393;BME280;7281;42.678;23.372;2022-11-30T06:19:08;95331.59;;;8.17;61.79
14393;BME280;7281;42.678;23.372;2022-11-30T06:21:35;95329.53;;;7.96;61.45
14393;BME280;7281;42.678;23.372;2022-11-30T06:24:02;95327.97;;;7.72;62.24
14393;BME280;7281;42.678;23.372;2022-11-30T06:26:29;95341.59;;;7.97;61.60
14393;BME280;7281;42.678;23.372;2022-11-30T06:28:56;95340.91;;;7.90;62.28
14393;BME280;7281;42.678;23.372;2022-11-30T06:31:22;95339.88;;;7.68;62.95
14393;BME280;7281;42.678;23.372;2022-11-30T06:33:49;95333.75;;;7.62;62.16
14393;BME280;7281;42.678;23.372;2022-11-30T06:36:21;95339.88;;;7.79;61.75
14393;BME280;7281;42.678;23.372;2022-11-30T06:38:48;95342.72;;;7.78;62.07
14393;BME280;7281;42.678;23.372;2022-11-30T06:41:16;95333.06;;;7.67;62.10
14393;BME280;7281;42.678;23.372;2022-11-30T06:43:42;95352.22;;;8.07;60.94
14393;BME280;7281;42.678;23.372;2022-11-30T06:46:09;95357.25;;;7.97;60.65
14393;BME280;7281;42.678;23.372;2022-11-30T06:48:37;95353.81;;;8.31;60.38
14393;BME280;7281;42.678;23.372;2022-11-30T06:51:05;95344.28;;;8.76;60.76
14393;BME280;7281;42.678;23.372;2022-11-30T06:53:32;95349.41;;;8.71;59.41
14393;BME280;7281;42.678;23.372;2022-11-30T06:56:09;95343.22;;;8.49;60.27
14393;BME280;7281;42.678;23.372;2022-11-30T06:58:40;95332.47;;;8.34;60.50
14393;BME280;7281;42.678;23.372;2022-11-30T07:01:10;95343.88;;;8.56;60.05
14393;BME280;7281;42.678;23.372;2022-11-30T07:03:38;95352.31;;;8.47;60.32
14393;BME280;7281;42.678;23.372;2022-11-30T07:06:11;95352.13;;;7.90;60.58
14393;BME280;7281;42.678;23.372;2022-11-30T07:08:38;95355.63;;;7.96;60.62
14393;BME280;7281;42.678;23.372;2022-11-30T07:11:06;95347.69;;;8.14;60.55
14393;BME280;7281;42.678;23.372;2022-11-30T07:13:34;95339.13;;;8.53;59.85
14393;BME280;7281;42.678;23.372;2022-11-30T07:16:05;95343.94;;;8.33;59.99
14393;BME280;7281;42.678;23.372;2022-11-30T07:18:33;95346.78;;;8.20;60.88
14393;BME280;7281;42.678;23.372;2022-11-30T07:21:03;95345.78;;;8.09;60.73
14393;BME280;7281;42.678;23.372;2022-11-30T07:23:31;95343.41;;;7.96;60.54
14393;BME280;7281;42.678;23.372;2022-11-30T07:26:22;95328.84;;;8.12;59.85
14393;BME280;7281;42.678;23.372;2022-11-30T07:28:50;95342.03;;;8.17;60.19
14393;BME280;7281;42.678;23.372;2022-11-30T07:31:26;95349.06;;;7.82;59.60
14393;BME280;7281;42.678;23.372;2022-11-30T07:33:54;95348.38;;;7.98;59.76
14393;BME280;7281;42.678;23.372;2022-11-30T07:36:24;95359.97;;;7.79;59.87
14393;BME280;7281;42.678;23.372;2022-11-30T07:38:52;95359.28;;;7.72;59.95
14393;BME280;7281;42.678;23.372;2022-11-30T07:41:19;95355.16;;;8.22;59.48
14393;BME280;7281;42.678;23.372;2022-11-30T07:43:46;95351.53;;;8.46;58.49
14393;BME280;7281;42.678;23.372;2022-11-30T07:46:14;95343.28;;;8.66;58.30
14393;BME280;7281;42.678;23.372;2022-11-30T07:48:42;95337.84;;;8.67;58.34
14393;BME280;7281;42.678;23.372;2022-11-30T07:51:13;95340.19;;;8.80;57.79
14393;BME280;7281;42.678;23.372;2022-11-30T07:53:40;95339.44;;;8.68;58.52
14393;BME280;7281;42.678;23.372;2022-11-30T07:56:10;95348.50;;;8.77;58.39
14393;BME280;7281;42.678;23.372;2022-11-30T07:58:38;95337.19;;;8.60;58.51
14393;BME280;7281;42.678;23.372;2022-11-30T08:01:08;95341.44;;;8.38;59.65
14393;BME280;7281;42.678;23.372;2022-11-30T08:03:36;95312.84;;;8.08;60.46
14393;BME280;7281;42.678;23.372;2022-11-30T08:06:05;95332.84;;;8.26;60.19
14393;BME280;7281;42.678;23.372;2022-11-30T08:08:35;95332.63;;;8.04;61.08
14393;BME280;7281;42.678;23.372;2022-11-30T08:11:04;95329.41;;;8.14;59.88
14393;BME280;7281;42.678;23.372;2022-11-30T08:13:31;95321.63;;;7.91;60.69
14393;BME280;7281;42.678;23.372;2022-11-30T08:16:10;95327.50;;;7.98;60.87
14393;BME280;7281;42.678;23.372;2022-11-30T08:18:38;95337.94;;;7.75;61.20
14393;BME280;7281;42.678;23.372;2022-11-30T08:21:08;95332.75;;;7.75;60.74
14393;BME280;7281;42.678;23.372;2022-11-30T08:23:39;95340.44;;;7.93;60.95
14393;BME280;7281;42.678;23.372;2022-11-30T08:26:12;95328.84;;;8.12;60.95
14393;BME280;7281;42.678;23.372;2022-11-30T08:28:41;95334.75;;;8.19;60.26
14393;BME280;7281;42.678;23.372;2022-11-30T08:31:12;95340.97;;;8.18;60.27
14393;BME280;7281;42.678;23.372;2022-11-30T08:33:39;95343.06;;;7.93;61.42
14393;BME280;7281;42.678;23.372;2022-11-30T08:36:14;95345.19;;;7.96;60.95
14393;BME280;7281;42.678;23.372;2022-11-30T08:38:43;95343.59;;;8.06;60.29
14393;BME280;7281;42.678;23.372;2022-11-30T08:41:12;95346.66;;;7.92;60.10
14393;BME280;7281;42.678;23.372;2022-11-30T08:43:39;95347.69;;;7.91;60.87
14393;BME280;7281;42.678;23.372;2022-11-30T08:46:09;95339.31;;;8.00;60.79
14393;BME280;7281;42.678;23.372;2022-11-30T08:48:56;95336.00;;;8.05;60.41
14393;BME280;7281;42.678;23.372;2022-11-30T08:51:44;95337.91;;;8.44;60.20
14393;BME280;7281;42.678;23.372;2022-11-30T08:54:30;95335.13;;;8.62;59.02
14393;BME280;7281;42.678;23.372;2022-11-30T08:56:57;95328.75;;;8.70;58.74
14393;BME280;7281;42.678;23.372;2022-11-30T08:59:24;95333.09;;;8.64;58.81
14393;BME280;7281;42.678;23.372;2022-11-30T09:01:51;95341.34;;;8.10;59.58
14393;BME280;7281;42.678;23.372;2022-11-30T09:04:18;95327.72;;;8.31;59.34
14393;BME280;7281;42.678;23.372;2022-11-30T09:06:45;95339.72;;;8.32;58.99
14393;BME280;7281;42.678;23.372;2022-11-30T09:09:12;95338.47;;;8.46;58.78
14393;BME280;7281;42.678;23.372;2022-11-30T09:11:39;95333.59;;;8.38;59.70
14393;BME280;7281;42.678;23.372;2022-11-30T09:14:11;95344.94;;;8.32;59.63
14393;BME280;7281;42.678;23.372;2022-11-30T09:16:37;95339.69;;;8.55;58.56
14393;BME280;7281;42.678;23.372;2022-11-30T09:19:04;95342.13;;;8.73;59.09
14393;BME280;7281;42.678;23.372;2022-11-30T09:21:31;95346.44;;;8.79;59.06
14393;BME280;7281;42.678;23.372;2022-11-30T09:23:58;95348.47;;;8.14;59.05
14393;BME280;7281;42.678;23.372;2022-11-30T09:26:25;95340.88;;;8.36;59.14
14393;BME280;7281;42.678;23.372;2022-11-30T09:28:53;95345.72;;;8.56;59.37
14393;BME280;7281;42.678;23.372;2022-11-30T09:31:24;95353.97;;;8.64;58.76
14393;BME280;7281;42.678;23.372;2022-11-30T09:33:52;95355.72;;;8.47;59.16
14393;BME280;7281;42.678;23.372;2022-11-30T09:36:21;95353.91;;;8.36;59.75
14393;BME280;7281;42.678;23.372;2022-11-30T09:38:48;95356.53;;;8.36;59.63
14393;BME280;7281;42.678;23.372;2022-11-30T09:47:01;95351.22;;;8.31;60.07
14393;BME280;7281;42.678;23.372;2022-11-30T09:49:34;95350.94;;;8.84;59.45
14393;BME280;7281;42.678;23.372;2022-11-30T09:52:04;95350.31;;;8.65;59.68
14393;BME280;7281;42.678;23.372;2022-11-30T09:54:43;95336.38;;;8.99;58.59
14393;BME280;7281;42.678;23.372;2022-11-30T09:57:28;95351.72;;;9.12;58.60
14393;BME280;7281;42.678;23.372;2022-11-30T10:00:15;95337.19;;;8.60;58.74
14393;BME280;7281;42.678;23.372;2022-11-30T10:02:42;95350.28;;;8.88;58.79
14393;BME280;7281;42.678;23.372;2022-11-30T10:05:26;95345.31;;;8.75;58.77
14393;BME280;7281;42.678;23.372;2022-11-30T10:27:50;95324.78;;;8.95;58.74
14393;BME280;7281;42.678;23.372;2022-11-30T10:30:20;95321.94;;;8.97;59.31
14393;BME280;7281;42.678;23.372;2022-11-30T10:32:53;95319.88;;;8.99;59.34
14393;BME280;7281;42.678;23.372;2022-11-30T10:35:57;95324.50;;;9.08;58.91
14393;BME280;7281;42.678;23.372;2022-11-30T10:38:58;95321.81;;;9.20;58.33
14393;BME280;7281;42.678;23.372;2022-11-30T10:41:38;95318.78;;;8.83;59.44
14393;BME280;7281;42.678;23.372;2022-11-30T10:44:18;95319.06;;;8.98;59.02
14393;BME280;7281;42.678;23.372;2022-11-30T10:46:57;95312.16;;;9.20;58.83
14393;BME280;7281;42.678;23.372;2022-11-30T10:49:28;95317.03;;;8.44;60.32
14393;BME280;7281;42.678;23.372;2022-11-30T10:52:00;95317.19;;;9.10;58.90
14393;BME280;7281;42.678;23.372;2022-11-30T10:54:29;95308.75;;;8.75;59.17
14393;BME280;7281;42.678;23.372;2022-11-30T10:57:01;95313.41;;;8.22;60.40
14393;BME280;7281;42.678;23.372;2022-11-30T10:59:39;95312.63;;;8.61;59.35
14393;BME280;7281;42.678;23.372;2022-11-30T11:10:48;95294.69;;;9.09;59.22
14393;BME280;7281;42.678;23.372;2022-11-30T11:16:06;95290.97;;;9.05;58.78
14393;BME280;7281;42.678;23.372;2022-11-30T11:18:34;95290.91;;;9.34;58.42
14393;BME280;7281;42.678;23.372;2022-11-30T11:21:16;95296.69;;;9.02;58.64
14393;BME280;7281;42.678;23.372;2022-11-30T11:23:44;95288.66;;;8.92;59.12
14393;BME280;7281;42.678;23.372;2022-11-30T11:26:21;95292.28;;;9.19;58.85
14393;BME280;7281;42.678;23.372;2022-11-30T11:28:51;95288.38;;;9.39;58.42
14393;BME280;7281;42.678;23.372;2022-11-30T11:31:45;95274.59;;;9.27;58.50
14393;BME280;7281;42.678;23.372;2022-11-30T11:37:05;95288.88;;;9.36;58.03
14393;BME280;7281;42.678;23.372;2022-11-30T11:39:33;95288.88;;;9.36;58.38
14393;BME280;7281;42.678;23.372;2022-11-30T11:42:01;95298.16;;;8.98;59.04
14393;BME280;7281;42.678;23.372;2022-11-30T11:44:28;95302.94;;;8.73;59.62
14393;BME280;7281;42.678;23.372;2022-11-30T11:46:58;95273.84;;;8.98;59.48
14393;BME280;7281;42.678;23.372;2022-11-30T11:49:31;95298.19;;;9.15;59.14
14393;BME280;7281;42.678;23.372;2022-11-30T11:54:48;95281.41;;;9.28;58.62
14393;BME280;7281;42.678;23.372;2022-11-30T11:57:19;95288.31;;;9.34;58.25
14393;BME280;7281;42.678;23.372;2022-11-30T11:59:57;95288.91;;;9.07;59.42
14393;BME280;7281;42.678;23.372;2022-11-30T12:07:48;95294.34;;;8.89;59.33
14393;BME280;7281;42.678;23.372;2022-11-30T12:10:41;95297.38;;;9.14;59.23
14393;BME280;7281;42.678;23.372;2022-11-30T12:13:22;95295.81;;;9.13;59.15
14393;BME280;7281;42.678;23.372;2022-11-30T12:15:59;95297.41;;;9.48;57.94
14393;BME280;7281;42.678;23.372;2022-11-30T12:21:14;95304.31;;;9.54;57.58
14393;BME280;7281;42.678;23.372;2022-11-30T12:24:12;95302.63;;;9.81;56.69
14393;BME280;7281;42.678;23.372;2022-11-30T12:26:48;95297.38;;;9.81;57.12
14393;BME280;7281;42.678;23.372;2022-11-30T12:29:22;95292.97;;;9.65;56.42
14393;BME280;7281;42.678;23.372;2022-11-30T12:37:24;95303.44;;;9.65;56.56
14393;BME280;7281;42.678;23.372;2022-11-30T12:43:03;95303.91;;;9.62;56.43
14393;BME280;7281;42.678;23.372;2022-11-30T12:45:52;95303.25;;;9.21;56.89
14393;BME280;7281;42.678;23.372;2022-11-30T12:51:22;95303.03;;;8.78;58.23
14393;BME280;7281;42.678;23.372;2022-11-30T13:00:03;95318.81;;;8.55;58.75
14393;BME280;7281;42.678;23.372;2022-11-30T13:05:15;95309.47;;;8.87;58.26
14393;BME280;7281;42.678;23.372;2022-11-30T13:07:48;95324.69;;;8.90;58.48
14393;BME280;7281;42.678;23.372;2022-11-30T13:10:36;95329.72;;;8.80;58.26
14393;BME280;7281;42.678;23.372;2022-11-30T13:13:12;95323.56;;;8.58;58.52
14393;BME280;7281;42.678;23.372;2022-11-30T13:15:39;95316.06;;;8.90;58.37
14393;BME280;7281;42.678;23.372;2022-11-30T13:18:11;95327.34;;;9.23;57.34
14393;BME280;7281;42.678;23.372;2022-11-30T13:20:54;95312.16;;;9.20;57.24
14393;BME280;7281;42.678;23.372;2022-11-30T13:30:05;95316.38;;;8.93;58.27
14393;BME280;7281;42.678;23.372;2022-11-30T13:32:13;95298.31;;;8.92;58.01
14393;BME280;7281;42.678;23.372;2022-11-30T13:38:23;95323.66;;;8.91;57.18
14393;BME280;7281;42.678;23.372;2022-11-30T13:41:07;95307.66;;;8.88;57.45
14393;BME280;7281;42.678;23.372;2022-11-30T13:43:45;95312.41;;;8.91;57.64
14393;BME280;7281;42.678;23.372;2022-11-30T13:46:19;95305.00;;;8.71;57.48
14393;BME280;7281;42.678;23.372;2022-11-30T13:48:48;95312.28;;;9.31;56.43
14393;BME280;7281;42.678;23.372;2022-11-30T13:51:36;95306.13;;;9.37;56.03
14393;BME280;7281;42.678;23.372;2022-11-30T14:07:45;95299.72;;;8.83;56.15
14393;BME280;7281;42.678;23.372;2022-11-30T14:10:34;95296.22;;;8.77;55.97
14393;BME280;7281;42.678;23.372;2022-11-30T14:20:40;95292.09;;;8.81;54.58
14393;BME280;7281;42.678;23.372;2022-11-30T14:23:16;95279.75;;;8.77;55.12
14393;BME280;7281;42.678;23.372;2022-11-30T14:25:52;95295.22;;;8.50;56.02
14393;BME280;7281;42.678;23.372;2022-11-30T14:28:24;95286.31;;;8.63;55.80
14393;BME280;7281;42.678;23.372;2022-11-30T14:30:54;95291.28;;;8.64;55.00
14393;BME280;7281;42.678;23.372;2022-11-30T14:33:26;95283.75;;;9.12;55.30
14393;BME280;7281;42.678;23.372;2022-11-30T14:35:58;95287.19;;;9.46;54.28
14393;BME280;7281;42.678;23.372;2022-11-30T14:38:27;95283.94;;;9.39;53.42
14393;BME280;7281;42.678;23.372;2022-11-30T14:40:56;95283.69;;;9.41;53.69
14393;BME280;7281;42.678;23.372;2022-11-30T14:43:24;95288.75;;;9.31;53.44
14393;BME280;7281;42.678;23.372;2022-11-30T14:46:00;95296.31;;;8.82;55.10
14393;BME280;7281;42.678;23.372;2022-11-30T14:48:32;95290.28;;;9.27;54.64
14393;BME280;7281;42.678;23.372;2022-11-30T14:51:01;95302.16;;;9.51;54.42
14393;BME280;7281;42.678;23.372;2022-11-30T14:56:10;95297.34;;;9.97;52.91
14393;BME280;7281;42.678;23.372;2022-11-30T14:58:53;95310.16;;;9.44;54.30
14393;BME280;7281;42.678;23.372;2022-11-30T15:01:26;95315.00;;;9.36;54.33
14393;BME280;7281;42.678;23.372;2022-11-30T15:03:56;95309.28;;;9.72;54.00
14393;BME280;7281;42.678;23.372;2022-11-30T15:06:29;95301.78;;;9.97;53.25
14393;BME280;7281;42.678;23.372;2022-11-30T15:08:59;95316.41;;;10.09;52.65
14393;BME280;7281;42.678;23.372;2022-11-30T15:11:28;95318.06;;;10.15;52.72
14393;BME280;7281;42.678;23.372;2022-11-30T15:13:56;95321.06;;;9.91;53.37
14393;BME280;7281;42.678;23.372;2022-11-30T15:16:32;95311.97;;;9.93;53.48
14393;BME280;7281;42.678;23.372;2022-11-30T15:18:59;95318.31;;;9.81;53.27
14393;BME280;7281;42.678;23.372;2022-11-30T15:21:46;95329.19;;;9.73;53.97
14393;BME280;7281;42.678;23.372;2022-11-30T15:24:13;95324.81;;;9.62;54.03
14393;BME280;7281;42.678;23.372;2022-11-30T15:27:06;95314.97;;;9.02;55.21
14393;BME280;7281;42.678;23.372;2022-11-30T15:29:43;95320.38;;;9.29;54.70
14393;BME280;7281;42.678;23.372;2022-11-30T15:32:16;95312.72;;;8.94;55.25
14393;BME280;7281;42.678;23.372;2022-11-30T15:35:03;95329.88;;;9.18;55.17